createdAt,value
2019-06-20T00:03:07.894Z,5.53
2019-06-20T00:08:12.582Z,5.00
2019-06-20T00:13:19.526Z,5.00
2019-06-20T00:18:26.581Z,5.73
2019-06-20T00:23:30.583Z,5.40
2019-06-20T00:28:34.476Z,6.50
2019-06-20T00:33:38.934Z,7.43
2019-06-20T00:38:43.146Z,5.40
2019-06-20T00:43:47.607Z,6.00
2019-06-20T00:48:52.799Z,8.87
2019-06-20T00:53:58.872Z,5.57
2019-06-20T00:59:04.818Z,5.23
2019-06-20T01:04:08.947Z,5.63
2019-06-20T01:09:13.402Z,5.43
2019-06-20T01:14:17.418Z,6.80
2019-06-20T01:19:21.407Z,5.40
2019-06-20T01:24:25.588Z,5.20
2019-06-20T01:29:29.488Z,5.23
2019-06-20T01:34:33.420Z,5.30
2019-06-20T01:39:37.590Z,6.60
2019-06-20T01:44:41.767Z,5.43
2019-06-20T01:49:45.659Z,4.87
2019-06-20T01:54:49.543Z,5.97
2019-06-20T01:59:56.313Z,5.40
2019-06-20T02:05:00.585Z,7.13
2019-06-20T02:10:06.525Z,6.83
2019-06-20T02:15:11.639Z,5.90
2019-06-20T02:20:27.899Z,6.20
2019-06-20T02:25:32.569Z,5.63
2019-06-20T02:30:36.659Z,8.50
2019-06-20T02:35:40.860Z,6.97
2019-06-20T02:40:45.714Z,5.87
2019-06-20T02:45:49.939Z,5.23
2019-06-20T02:50:54.547Z,5.90
2019-06-20T02:56:00.246Z,6.47
2019-06-20T03:01:04.918Z,5.20
2019-06-20T03:06:09.185Z,9.43
2019-06-20T03:11:13.380Z,7.47
2019-06-20T03:16:17.576Z,5.60
2019-06-20T03:21:39.375Z,6.13
2019-06-20T03:26:43.430Z,4.57
2019-06-20T03:31:47.664Z,6.20
2019-06-20T03:36:52.015Z,6.50
2019-06-20T03:41:56.209Z,5.47
2019-06-20T03:47:00.435Z,6.70
2019-06-20T03:52:04.839Z,4.10
2019-06-20T03:57:08.818Z,4.43
2019-06-20T04:02:13.067Z,4.33
2019-06-20T04:07:17.405Z,7.30
2019-06-20T04:12:21.625Z,4.00
2019-06-20T04:17:28.024Z,4.73
2019-06-20T04:22:32.063Z,4.70
2019-06-20T04:27:36.560Z,4.13
2019-06-20T04:32:40.792Z,4.10
2019-06-20T04:37:44.678Z,3.83
2019-06-20T04:42:49.132Z,4.30
2019-06-20T04:47:54.663Z,4.77
2019-06-20T04:52:58.919Z,5.17
2019-06-20T04:58:02.828Z,5.10
2019-06-20T05:03:07.297Z,6.70
2019-06-20T05:08:11.564Z,6.17
2019-06-20T05:13:16.240Z,4.90
2019-06-20T05:18:20.683Z,5.07
2019-06-20T05:23:24.912Z,5.23
2019-06-20T05:28:29.123Z,5.43
2019-06-20T05:33:33.507Z,6.80
2019-06-20T05:38:37.754Z,5.40
2019-06-20T05:43:41.831Z,4.90
2019-06-20T05:48:46.083Z,4.70
2019-06-20T05:53:50.564Z,4.90
2019-06-20T05:58:55.136Z,5.13
2019-06-20T06:03:59.690Z,3.97
2019-06-20T06:09:05.417Z,4.70
2019-06-20T06:14:09.863Z,4.20
2019-06-20T06:19:14.093Z,4.40
2019-06-20T06:24:18.238Z,4.57
2019-06-20T06:29:22.364Z,4.10
2019-06-20T06:34:26.249Z,4.23
2019-06-20T06:39:30.690Z,3.90
2019-06-20T06:44:34.686Z,5.57
2019-06-20T06:49:39.182Z,3.50
2019-06-20T06:54:43.368Z,5.50
2019-06-20T06:59:47.704Z,3.13
2019-06-20T07:04:52.346Z,3.43
2019-06-20T07:09:56.307Z,2.93
2019-06-20T07:15:00.575Z,3.37
2019-06-20T07:20:08.825Z,2.80
2019-06-20T07:25:13.462Z,3.20
2019-06-20T07:30:17.954Z,2.50
2019-06-20T07:35:21.875Z,3.03
2019-06-20T07:40:26.098Z,3.30
2019-06-20T07:45:30.615Z,2.83
2019-06-20T07:50:34.579Z,3.63
2019-06-20T07:55:38.495Z,2.80
2019-06-20T08:00:42.783Z,2.93
2019-06-20T08:05:48.900Z,2.83
2019-06-20T08:10:53.112Z,2.93
2019-06-20T08:15:57.213Z,3.20
2019-06-20T08:21:01.212Z,2.70
2019-06-20T08:26:05.129Z,2.92
2019-06-20T08:31:09.008Z,2.60
2019-06-20T08:36:13.160Z,2.40
2019-06-20T08:41:18.563Z,3.37
2019-06-20T08:46:22.595Z,2.67
2019-06-20T08:51:26.790Z,2.57
2019-06-20T08:56:31.001Z,2.50
2019-06-20T09:01:35.213Z,2.70
2019-06-20T09:06:39.584Z,2.47
2019-06-20T09:11:43.733Z,2.42
2019-06-20T09:16:48.282Z,2.30
2019-06-20T09:21:54.115Z,2.47
2019-06-20T09:26:59.354Z,2.30
2019-06-20T09:32:04.668Z,2.50
2019-06-20T09:37:09.497Z,3.20
2019-06-20T09:42:13.873Z,2.33
2019-06-20T09:47:17.920Z,2.20
2019-06-20T09:52:21.942Z,3.52
2019-06-20T09:57:26.234Z,2.33
2019-06-20T10:02:30.875Z,2.67
2019-06-20T10:07:35.186Z,2.10
2019-06-20T10:12:39.733Z,2.50
2019-06-20T10:17:52.877Z,2.57
2019-06-20T10:22:57.644Z,2.40
2019-06-20T10:28:04.052Z,2.70
2019-06-20T10:33:08.490Z,2.27
2019-06-20T10:38:12.874Z,2.40
2019-06-20T10:43:17.267Z,3.17
2019-06-20T10:48:21.945Z,2.20
2019-06-20T10:53:26.326Z,2.37
2019-06-20T10:58:30.919Z,1.90
2019-06-20T11:03:37.371Z,2.00
2019-06-20T11:08:42.210Z,2.13
2019-06-20T11:13:48.540Z,2.93
2019-06-20T11:18:52.631Z,2.20
2019-06-20T11:23:56.956Z,2.20
2019-06-20T11:29:02.098Z,2.57
2019-06-20T11:34:06.420Z,2.10
2019-06-20T11:39:10.484Z,2.43
2019-06-20T11:44:14.709Z,2.33
2019-06-20T11:49:20.809Z,2.40
2019-06-20T11:54:25.765Z,2.60
2019-06-20T11:59:32.001Z,2.40
2019-06-20T12:04:36.335Z,3.93
2019-06-20T12:09:40.966Z,2.70
2019-06-20T12:14:46.676Z,4.43
2019-06-20T12:19:52.623Z,3.33
2019-06-20T12:24:56.711Z,3.20
2019-06-20T12:30:01.070Z,3.37
2019-06-20T12:35:06.300Z,3.20
2019-06-20T12:40:11.247Z,3.43
2019-06-20T12:45:16.486Z,4.20
2019-06-20T12:50:20.663Z,3.43
2019-06-20T12:55:25.029Z,3.40
2019-06-20T13:00:29.981Z,4.20
2019-06-20T13:05:33.987Z,3.53
2019-06-20T13:10:39.196Z,3.80
2019-06-20T13:15:44.602Z,3.23
2019-06-20T13:20:49.026Z,3.80
2019-06-20T13:25:59.362Z,2.33
2019-06-20T13:31:05.039Z,1.43
2019-06-20T13:36:09.690Z,1.00
2019-06-20T13:41:14.441Z,1.03
2019-06-20T13:46:18.932Z,1.70
2019-06-20T13:51:23.043Z,2.90
2019-06-20T13:56:27.063Z,4.83
2019-06-20T14:01:31.400Z,6.53
2019-06-20T14:06:35.538Z,6.10
2019-06-20T14:11:40.021Z,6.77
2019-06-20T14:16:45.420Z,6.80
2019-06-20T14:21:50.650Z,10.03
2019-06-20T14:26:55.561Z,10.63
2019-06-20T14:31:59.682Z,12.90
2019-06-20T14:37:04.102Z,12.77
2019-06-20T14:42:09.016Z,10.90
2019-06-20T14:47:15.872Z,12.17
2019-06-20T14:52:20.600Z,11.87
2019-06-20T14:57:25.062Z,12.53
2019-06-20T15:02:38.436Z,11.43
2019-06-20T15:07:35.674Z,12.80
2019-06-20T15:12:39.789Z,11.83
2019-06-20T15:17:46.504Z,6.03
2019-06-20T15:22:50.886Z,6.77
2019-06-20T15:27:57.070Z,7.90
2019-06-20T15:33:09.862Z,8.27
2019-06-20T15:38:08.284Z,7.97
2019-06-20T15:43:12.974Z,8.35
2019-06-20T15:48:17.499Z,10.57
2019-06-20T15:53:21.966Z,8.67
2019-06-20T15:58:27.259Z,8.90
2019-06-20T16:03:31.920Z,8.30
2019-06-20T16:08:36.683Z,7.17
2019-06-20T16:13:40.883Z,7.90
2019-06-20T16:18:45.083Z,7.80
2019-06-20T16:23:50.068Z,7.20
2019-06-20T16:28:54.872Z,7.07
2019-06-20T16:34:00.481Z,8.73
2019-06-20T16:39:07.934Z,6.27
2019-06-20T16:44:12.296Z,6.30
2019-06-20T16:49:16.855Z,5.40
2019-06-20T16:54:21.278Z,6.50
2019-06-20T16:59:25.676Z,5.93
2019-06-20T17:04:29.977Z,5.10
2019-06-20T17:09:34.201Z,4.97
2019-06-20T17:14:38.770Z,4.70
2019-06-20T17:19:43.090Z,5.43
2019-06-20T17:24:47.571Z,4.80
2019-06-20T17:29:52.133Z,6.03
2019-06-20T17:34:56.332Z,6.23
2019-06-20T17:40:00.550Z,5.67
2019-06-20T17:45:07.558Z,6.90
2019-06-20T17:50:14.097Z,6.60
2019-06-20T17:55:18.535Z,5.00
2019-06-20T18:00:44.103Z,5.77
2019-06-20T18:05:48.379Z,6.60
2019-06-20T18:10:52.617Z,5.10
2019-06-20T18:15:56.844Z,4.87
2019-06-20T18:21:02.136Z,4.30
2019-06-20T18:26:06.119Z,4.77
2019-06-20T18:31:10.024Z,4.70
2019-06-20T18:36:14.877Z,4.67
2019-06-20T18:41:19.115Z,5.00
2019-06-20T18:46:24.633Z,7.87
2019-06-20T18:51:29.197Z,4.40
2019-06-20T18:56:34.467Z,4.10
2019-06-20T19:01:42.135Z,4.70
2019-06-20T19:06:46.422Z,4.90
2019-06-20T19:11:53.828Z,4.30
2019-06-20T19:16:58.426Z,5.57
2019-06-20T19:22:02.662Z,5.50
2019-06-20T19:27:06.916Z,6.00
2019-06-20T19:32:11.155Z,5.23
2019-06-20T19:37:15.057Z,5.87
2019-06-20T19:42:20.628Z,4.80
2019-06-20T19:47:25.138Z,5.40
2019-06-20T19:52:29.467Z,5.27
2019-06-20T19:57:33.489Z,5.73
2019-06-20T20:02:37.393Z,5.33
2019-06-20T20:07:41.259Z,6.87
2019-06-20T20:12:45.701Z,6.73
2019-06-20T20:17:50.243Z,6.20
2019-06-20T20:22:54.464Z,8.07
2019-06-20T20:27:58.684Z,7.43
2019-06-20T20:33:02.642Z,6.40
2019-06-20T20:38:06.886Z,8.10
2019-06-20T20:43:10.826Z,6.90
2019-06-20T20:48:14.926Z,6.87
2019-06-20T20:53:19.063Z,6.53
2019-06-20T20:58:23.040Z,5.93
2019-06-20T21:03:27.285Z,8.50
2019-06-20T21:08:32.898Z,7.20
2019-06-20T21:13:37.626Z,8.50
2019-06-20T21:18:41.580Z,8.50
2019-06-20T21:23:45.508Z,8.93
2019-06-20T21:28:49.766Z,8.33
2019-06-20T21:33:54.663Z,7.93
2019-06-20T21:38:58.665Z,8.57
2019-06-20T21:44:02.836Z,10.60
2019-06-20T21:49:07.331Z,9.33
2019-06-20T21:54:11.308Z,8.93
2019-06-20T21:59:15.170Z,8.93
2019-06-20T22:04:19.304Z,10.93
2019-06-20T22:09:23.439Z,8.83
2019-06-20T22:14:27.956Z,7.90
2019-06-20T22:19:32.500Z,8.17
2019-06-20T22:24:37.053Z,7.97
2019-06-20T22:29:41.637Z,7.57
2019-06-20T22:34:45.923Z,8.03
2019-06-20T22:39:50.230Z,9.70
2019-06-20T22:44:54.287Z,6.90
2019-06-20T22:49:58.195Z,8.17
2019-06-20T22:55:02.397Z,8.40
2019-06-20T23:00:10.759Z,8.57
2019-06-20T23:05:15.068Z,7.67
2019-06-20T23:10:19.027Z,7.97
2019-06-20T23:15:23.248Z,6.93
2019-06-20T23:20:27.386Z,7.13
2019-06-20T23:25:31.940Z,7.30
2019-06-20T23:30:36.459Z,7.43
2019-06-20T23:35:40.847Z,8.77
2019-06-20T23:40:44.809Z,10.40
2019-06-20T23:45:48.943Z,10.10
2019-06-20T23:50:53.058Z,10.97
2019-06-20T23:55:57.242Z,12.07
